Terminal Aerodrome Forecast
Issued by NWS

Home | Current Version | Previous Version | Text Only | Print | Product List | Glossary On
Versions: 1 2 3 4 5 6 7 8 9 10 11 12 13 14 15 16 17 18 19 20 21 22 23 24 25 26 27 28 29 30 31 32 33 34 35 36 37 38 39 40 41 42
000
FTUS41 KBOX 251736
TAFBAF
TAF
KBAF 251736Z 2518/2618 17010G20KT P6SM BKN015
     FM252300 18010KT 2SM BR OVC015
     FM260100 21010G21KT 3SM SHRA VCTS OVC020CB
     FM260200 28012G25KT 3SM -SHRA BR OVC050
     FM260400 32013G29KT P6SM BKN060
     FM260600 31014G31KT P6SM SCT250
     FM261300 29015G30KT P6SM BKN040=

USA.gov is the U.S. government's official web portal to all federal, state and local government web resources and services.